sensor_id;sensor_type;location;lat;lon;timestamp;P1;durP1;ratioP1;P2;durP2;ratioP2
61200;SDS011;47065;52.898;6.992;2023-03-20T00:00:28;12.15;;;7.85;;
61200;SDS011;47065;52.898;6.992;2023-03-20T00:02:56;14.50;;;8.93;;
61200;SDS011;47065;52.898;6.992;2023-03-20T00:05:22;14.00;;;9.10;;
61200;SDS011;47065;52.898;6.992;2023-03-20T00:07:49;16.98;;;8.65;;
61200;SDS011;47065;52.898;6.992;2023-03-20T00:10:15;15.15;;;8.63;;
61200;SDS011;47065;52.898;6.992;2023-03-20T00:12:43;16.88;;;10.27;;
61200;SDS011;47065;52.898;6.992;2023-03-20T00:15:16;18.35;;;8.18;;
61200;SDS011;47065;52.898;6.992;2023-03-20T00:17:46;14.98;;;8.57;;
61200;SDS011;47065;52.898;6.992;2023-03-20T00:20:15;17.40;;;9.75;;
61200;SDS011;47065;52.898;6.992;2023-03-20T00:22:41;15.25;;;9.43;;
61200;SDS011;47065;52.898;6.992;2023-03-20T00:25:11;13.55;;;8.65;;
61200;SDS011;47065;52.898;6.992;2023-03-20T00:27:42;15.35;;;8.52;;
61200;SDS011;47065;52.898;6.992;2023-03-20T00:30:18;12.85;;;7.85;;
61200;SDS011;47065;52.898;6.992;2023-03-20T00:32:52;12.33;;;8.60;;
61200;SDS011;47065;52.898;6.992;2023-03-20T00:35:24;18.05;;;9.00;;
61200;SDS011;47065;52.898;6.992;2023-03-20T00:37:52;13.35;;;8.10;;
61200;SDS011;47065;52.898;6.992;2023-03-20T00:40:18;13.95;;;8.07;;
61200;SDS011;47065;52.898;6.992;2023-03-20T00:42:46;14.38;;;8.55;;
61200;SDS011;47065;52.898;6.992;2023-03-20T00:45:21;12.55;;;7.55;;
61200;SDS011;47065;52.898;6.992;2023-03-20T00:47:48;12.48;;;7.68;;
61200;SDS011;47065;52.898;6.992;2023-03-20T00:50:25;17.25;;;8.13;;
61200;SDS011;47065;52.898;6.992;2023-03-20T00:52:55;15.30;;;8.20;;
61200;SDS011;47065;52.898;6.992;2023-03-20T00:55:23;14.48;;;8.48;;
61200;SDS011;47065;52.898;6.992;2023-03-20T00:57:53;14.13;;;7.72;;
61200;SDS011;47065;52.898;6.992;2023-03-20T01:00:24;22.65;;;9.60;;
61200;SDS011;47065;52.898;6.992;2023-03-20T01:02:52;20.27;;;9.73;;
61200;SDS011;47065;52.898;6.992;2023-03-20T01:05:22;22.27;;;9.73;;
61200;SDS011;47065;52.898;6.992;2023-03-20T01:07:49;17.73;;;9.68;;
61200;SDS011;47065;52.898;6.992;2023-03-20T01:10:15;27.02;;;12.32;;
61200;SDS011;47065;52.898;6.992;2023-03-20T01:12:41;20.00;;;12.05;;
61200;SDS011;47065;52.898;6.992;2023-03-20T01:15:41;24.75;;;10.68;;
61200;SDS011;47065;52.898;6.992;2023-03-20T01:18:00;21.33;;;10.98;;
61200;SDS011;47065;52.898;6.992;2023-03-20T01:20:27;19.35;;;9.52;;
61200;SDS011;47065;52.898;6.992;2023-03-20T01:22:55;22.23;;;9.52;;
61200;SDS011;47065;52.898;6.992;2023-03-20T01:25:21;21.20;;;10.23;;
61200;SDS011;47065;52.898;6.992;2023-03-20T01:27:50;20.27;;;9.40;;
61200;SDS011;47065;52.898;6.992;2023-03-20T01:30:28;19.83;;;9.60;;
61200;SDS011;47065;52.898;6.992;2023-03-20T01:32:55;23.95;;;9.90;;
61200;SDS011;47065;52.898;6.992;2023-03-20T01:35:26;18.17;;;7.95;;
61200;SDS011;47065;52.898;6.992;2023-03-20T01:37:53;13.18;;;7.35;;
61200;SDS011;47065;52.898;6.992;2023-03-20T01:43:23;11.32;;;6.82;;
61200;SDS011;47065;52.898;6.992;2023-03-20T01:46:00;12.00;;;6.00;;
61200;SDS011;47065;52.898;6.992;2023-03-20T01:51:25;12.23;;;6.35;;
61200;SDS011;47065;52.898;6.992;2023-03-20T01:54:00;15.00;;;6.60;;
61200;SDS011;47065;52.898;6.992;2023-03-20T01:56:31;14.68;;;7.22;;
61200;SDS011;47065;52.898;6.992;2023-03-20T01:59:07;15.60;;;7.68;;
61200;SDS011;47065;52.898;6.992;2023-03-20T02:01:37;14.20;;;7.68;;
61200;SDS011;47065;52.898;6.992;2023-03-20T02:04:04;19.27;;;6.97;;
61200;SDS011;47065;52.898;6.992;2023-03-20T02:06:31;18.13;;;7.88;;
61200;SDS011;47065;52.898;6.992;2023-03-20T02:08:57;16.55;;;8.38;;
61200;SDS011;47065;52.898;6.992;2023-03-20T02:11:23;21.63;;;8.15;;
61200;SDS011;47065;52.898;6.992;2023-03-20T02:13:50;16.67;;;6.82;;
61200;SDS011;47065;52.898;6.992;2023-03-20T02:16:19;18.17;;;8.20;;
61200;SDS011;47065;52.898;6.992;2023-03-20T02:18:46;19.15;;;7.18;;
61200;SDS011;47065;52.898;6.992;2023-03-20T02:27:17;17.58;;;6.60;;
61200;SDS011;47065;52.898;6.992;2023-03-20T02:41:24;15.15;;;8.55;;
61200;SDS011;47065;52.898;6.992;2023-03-20T02:44:12;14.75;;;7.18;;
61200;SDS011;47065;52.898;6.992;2023-03-20T02:46:52;19.08;;;7.10;;
61200;SDS011;47065;52.898;6.992;2023-03-20T02:52:32;13.23;;;6.05;;
61200;SDS011;47065;52.898;6.992;2023-03-20T03:00:53;16.48;;;7.05;;
61200;SDS011;47065;52.898;6.992;2023-03-20T03:03:36;14.88;;;7.53;;
61200;SDS011;47065;52.898;6.992;2023-03-20T03:06:21;18.53;;;8.30;;
61200;SDS011;47065;52.898;6.992;2023-03-20T03:08:49;20.65;;;9.15;;
61200;SDS011;47065;52.898;6.992;2023-03-20T03:11:19;16.58;;;8.25;;
61200;SDS011;47065;52.898;6.992;2023-03-20T03:13:49;15.82;;;7.88;;
61200;SDS011;47065;52.898;6.992;2023-03-20T03:16:28;16.58;;;8.07;;
61200;SDS011;47065;52.898;6.992;2023-03-20T03:19:02;13.80;;;8.68;;
61200;SDS011;47065;52.898;6.992;2023-03-20T03:23:59;17.02;;;8.23;;
61200;SDS011;47065;52.898;6.992;2023-03-20T03:26:26;24.05;;;10.50;;
61200;SDS011;47065;52.898;6.992;2023-03-20T03:28:59;20.65;;;9.63;;
61200;SDS011;47065;52.898;6.992;2023-03-20T03:31:27;29.52;;;10.32;;
61200;SDS011;47065;52.898;6.992;2023-03-20T03:33:55;18.23;;;10.30;;
61200;SDS011;47065;52.898;6.992;2023-03-20T03:46:51;23.50;;;10.77;;
61200;SDS011;47065;52.898;6.992;2023-03-20T03:49:25;18.08;;;10.30;;
61200;SDS011;47065;52.898;6.992;2023-03-20T03:51:55;30.42;;;11.52;;
61200;SDS011;47065;52.898;6.992;2023-03-20T03:54:42;22.15;;;9.73;;
61200;SDS011;47065;52.898;6.992;2023-03-20T03:57:11;15.52;;;9.57;;
61200;SDS011;47065;52.898;6.992;2023-03-20T03:59:41;17.95;;;10.75;;
61200;SDS011;47065;52.898;6.992;2023-03-20T04:02:10;21.10;;;10.98;;
61200;SDS011;47065;52.898;6.992;2023-03-20T04:04:38;20.60;;;11.98;;
61200;SDS011;47065;52.898;6.992;2023-03-20T04:07:07;24.77;;;11.43;;
61200;SDS011;47065;52.898;6.992;2023-03-20T04:09:33;25.95;;;12.32;;
61200;SDS011;47065;52.898;6.992;2023-03-20T04:11:59;27.98;;;12.18;;
61200;SDS011;47065;52.898;6.992;2023-03-20T04:14:24;20.02;;;13.20;;
61200;SDS011;47065;52.898;6.992;2023-03-20T04:16:51;23.30;;;12.18;;
61200;SDS011;47065;52.898;6.992;2023-03-20T04:19:16;28.88;;;14.32;;
61200;SDS011;47065;52.898;6.992;2023-03-20T04:21:45;23.85;;;11.63;;
61200;SDS011;47065;52.898;6.992;2023-03-20T04:24:11;24.30;;;14.15;;
61200;SDS011;47065;52.898;6.992;2023-03-20T04:26:37;22.52;;;12.52;;
61200;SDS011;47065;52.898;6.992;2023-03-20T04:29:04;31.33;;;13.30;;
61200;SDS011;47065;52.898;6.992;2023-03-20T04:31:29;26.27;;;12.43;;
61200;SDS011;47065;52.898;6.992;2023-03-20T04:33:55;20.08;;;11.88;;
61200;SDS011;47065;52.898;6.992;2023-03-20T04:36:21;25.90;;;12.60;;
61200;SDS011;47065;52.898;6.992;2023-03-20T04:38:47;22.20;;;11.00;;
61200;SDS011;47065;52.898;6.992;2023-03-20T04:41:12;20.90;;;11.05;;
61200;SDS011;47065;52.898;6.992;2023-03-20T04:43:38;25.45;;;11.30;;
61200;SDS011;47065;52.898;6.992;2023-03-20T04:46:04;23.90;;;11.40;;
61200;SDS011;47065;52.898;6.992;2023-03-20T04:48:30;21.08;;;10.40;;
61200;SDS011;47065;52.898;6.992;2023-03-20T04:50:56;20.15;;;10.65;;
61200;SDS011;47065;52.898;6.992;2023-03-20T04:53:22;21.35;;;10.50;;
61200;SDS011;47065;52.898;6.992;2023-03-20T04:55:47;18.92;;;9.23;;
61200;SDS011;47065;52.898;6.992;2023-03-20T04:58:15;27.48;;;10.68;;
61200;SDS011;47065;52.898;6.992;2023-03-20T05:00:42;19.55;;;10.45;;
61200;SDS011;47065;52.898;6.992;2023-03-20T05:03:08;19.88;;;9.93;;
61200;SDS011;47065;52.898;6.992;2023-03-20T05:05:34;17.63;;;8.45;;
61200;SDS011;47065;52.898;6.992;2023-03-20T05:08:02;18.48;;;8.82;;
61200;SDS011;47065;52.898;6.992;2023-03-20T05:10:30;17.55;;;9.43;;
61200;SDS011;47065;52.898;6.992;2023-03-20T05:12:56;15.75;;;9.32;;
61200;SDS011;47065;52.898;6.992;2023-03-20T05:15:22;17.98;;;9.48;;
61200;SDS011;47065;52.898;6.992;2023-03-20T05:17:47;19.65;;;7.57;;
61200;SDS011;47065;52.898;6.992;2023-03-20T05:20:13;13.68;;;8.02;;
61200;SDS011;47065;52.898;6.992;2023-03-20T05:22:40;12.68;;;7.50;;
61200;SDS011;47065;52.898;6.992;2023-03-20T05:25:05;14.98;;;8.02;;
61200;SDS011;47065;52.898;6.992;2023-03-20T05:27:32;15.38;;;8.00;;
61200;SDS011;47065;52.898;6.992;2023-03-20T05:29:57;13.50;;;7.88;;
61200;SDS011;47065;52.898;6.992;2023-03-20T05:32:23;12.25;;;7.28;;
61200;SDS011;47065;52.898;6.992;2023-03-20T05:34:49;15.07;;;7.45;;
61200;SDS011;47065;52.898;6.992;2023-03-20T05:37:15;19.35;;;8.52;;
61200;SDS011;47065;52.898;6.992;2023-03-20T05:39:40;16.25;;;7.75;;
61200;SDS011;47065;52.898;6.992;2023-03-20T05:42:06;16.95;;;8.73;;
61200;SDS011;47065;52.898;6.992;2023-03-20T05:44:32;15.45;;;9.55;;
61200;SDS011;47065;52.898;6.992;2023-03-20T05:46:57;15.60;;;8.20;;
61200;SDS011;47065;52.898;6.992;2023-03-20T05:49:23;12.15;;;8.15;;
61200;SDS011;47065;52.898;6.992;2023-03-20T05:51:49;15.18;;;9.30;;
61200;SDS011;47065;52.898;6.992;2023-03-20T05:54:15;14.82;;;8.40;;
61200;SDS011;47065;52.898;6.992;2023-03-20T05:56:41;15.32;;;8.63;;
61200;SDS011;47065;52.898;6.992;2023-03-20T05:59:06;17.70;;;9.25;;
61200;SDS011;47065;52.898;6.992;2023-03-20T06:01:32;17.55;;;8.93;;
61200;SDS011;47065;52.898;6.992;2023-03-20T06:03:57;21.25;;;10.52;;
61200;SDS011;47065;52.898;6.992;2023-03-20T06:06:23;19.00;;;9.80;;
61200;SDS011;47065;52.898;6.992;2023-03-20T06:08:49;14.43;;;9.05;;
61200;SDS011;47065;52.898;6.992;2023-03-20T06:11:15;17.65;;;9.93;;
61200;SDS011;47065;52.898;6.992;2023-03-20T06:13:40;17.05;;;9.73;;
61200;SDS011;47065;52.898;6.992;2023-03-20T06:16:06;19.02;;;9.35;;
61200;SDS011;47065;52.898;6.992;2023-03-20T06:18:32;15.88;;;9.63;;
61200;SDS011;47065;52.898;6.992;2023-03-20T06:20:58;16.60;;;9.65;;
61200;SDS011;47065;52.898;6.992;2023-03-20T06:23:24;18.55;;;9.80;;
61200;SDS011;47065;52.898;6.992;2023-03-20T06:25:49;19.20;;;10.60;;
61200;SDS011;47065;52.898;6.992;2023-03-20T06:28:15;20.42;;;11.65;;
61200;SDS011;47065;52.898;6.992;2023-03-20T06:30:41;16.77;;;10.05;;
61200;SDS011;47065;52.898;6.992;2023-03-20T06:33:08;16.42;;;10.48;;
61200;SDS011;47065;52.898;6.992;2023-03-20T06:35:34;24.70;;;10.63;;
61200;SDS011;47065;52.898;6.992;2023-03-20T06:38:00;19.80;;;12.05;;
61200;SDS011;47065;52.898;6.992;2023-03-20T06:40:26;18.75;;;10.63;;
61200;SDS011;47065;52.898;6.992;2023-03-20T06:42:52;26.95;;;10.00;;
61200;SDS011;47065;52.898;6.992;2023-03-20T06:45:18;17.90;;;10.63;;
61200;SDS011;47065;52.898;6.992;2023-03-20T06:47:44;19.50;;;9.80;;
61200;SDS011;47065;52.898;6.992;2023-03-20T06:50:11;16.38;;;10.30;;
61200;SDS011;47065;52.898;6.992;2023-03-20T06:52:37;16.42;;;10.55;;
61200;SDS011;47065;52.898;6.992;2023-03-20T06:55:04;16.40;;;9.98;;
61200;SDS011;47065;52.898;6.992;2023-03-20T06:57:30;16.55;;;9.50;;
61200;SDS011;47065;52.898;6.992;2023-03-20T06:59:56;13.60;;;8.60;;
61200;SDS011;47065;52.898;6.992;2023-03-20T07:02:22;12.85;;;8.68;;
61200;SDS011;47065;52.898;6.992;2023-03-20T07:04:48;16.42;;;9.73;;
61200;SDS011;47065;52.898;6.992;2023-03-20T07:07:14;21.13;;;9.77;;
61200;SDS011;47065;52.898;6.992;2023-03-20T07:09:41;14.55;;;9.00;;
61200;SDS011;47065;52.898;6.992;2023-03-20T07:12:11;14.38;;;8.73;;
61200;SDS011;47065;52.898;6.992;2023-03-20T07:14:41;15.02;;;8.40;;
61200;SDS011;47065;52.898;6.992;2023-03-20T07:17:07;15.07;;;7.97;;
61200;SDS011;47065;52.898;6.992;2023-03-20T07:19:37;21.75;;;8.68;;
61200;SDS011;47065;52.898;6.992;2023-03-20T07:22:04;11.52;;;7.65;;
61200;SDS011;47065;52.898;6.992;2023-03-20T07:24:32;12.90;;;7.95;;
61200;SDS011;47065;52.898;6.992;2023-03-20T07:26:58;12.50;;;7.75;;
61200;SDS011;47065;52.898;6.992;2023-03-20T07:29:24;13.30;;;7.75;;
61200;SDS011;47065;52.898;6.992;2023-03-20T07:31:49;14.15;;;7.15;;
61200;SDS011;47065;52.898;6.992;2023-03-20T07:34:16;12.40;;;7.47;;
61200;SDS011;47065;52.898;6.992;2023-03-20T07:36:42;17.13;;;7.93;;
61200;SDS011;47065;52.898;6.992;2023-03-20T07:39:07;11.10;;;7.18;;
61200;SDS011;47065;52.898;6.992;2023-03-20T07:41:33;14.40;;;7.20;;
61200;SDS011;47065;52.898;6.992;2023-03-20T07:44:00;14.10;;;7.32;;
61200;SDS011;47065;52.898;6.992;2023-03-20T07:46:26;15.85;;;8.30;;
61200;SDS011;47065;52.898;6.992;2023-03-20T07:48:51;13.07;;;6.75;;
61200;SDS011;47065;52.898;6.992;2023-03-20T07:51:17;13.93;;;6.70;;
61200;SDS011;47065;52.898;6.992;2023-03-20T07:53:43;12.00;;;6.88;;
61200;SDS011;47065;52.898;6.992;2023-03-20T07:56:08;13.32;;;7.28;;
61200;SDS011;47065;52.898;6.992;2023-03-20T07:58:34;11.27;;;6.90;;
61200;SDS011;47065;52.898;6.992;2023-03-20T08:01:00;11.00;;;6.53;;
61200;SDS011;47065;52.898;6.992;2023-03-20T08:03:27;14.57;;;7.13;;
61200;SDS011;47065;52.898;6.992;2023-03-20T08:05:56;12.63;;;6.30;;
61200;SDS011;47065;52.898;6.992;2023-03-20T08:08:22;14.32;;;6.93;;
61200;SDS011;47065;52.898;6.992;2023-03-20T08:10:47;14.68;;;7.32;;
61200;SDS011;47065;52.898;6.992;2023-03-20T08:13:13;14.77;;;7.22;;
61200;SDS011;47065;52.898;6.992;2023-03-20T08:15:39;16.88;;;7.38;;
61200;SDS011;47065;52.898;6.992;2023-03-20T08:18:05;12.85;;;6.72;;
61200;SDS011;47065;52.898;6.992;2023-03-20T08:20:30;12.90;;;6.50;;
61200;SDS011;47065;52.898;6.992;2023-03-20T08:22:56;11.02;;;6.68;;
61200;SDS011;47065;52.898;6.992;2023-03-20T08:25:22;12.45;;;7.03;;
61200;SDS011;47065;52.898;6.992;2023-03-20T08:27:47;12.10;;;6.82;;
61200;SDS011;47065;52.898;6.992;2023-03-20T08:30:13;9.52;;;6.18;;
61200;SDS011;47065;52.898;6.992;2023-03-20T08:32:40;15.27;;;8.13;;
61200;SDS011;47065;52.898;6.992;2023-03-20T08:35:06;12.68;;;6.75;;
61200;SDS011;47065;52.898;6.992;2023-03-20T08:37:32;16.35;;;7.63;;
61200;SDS011;47065;52.898;6.992;2023-03-20T08:39:59;14.57;;;7.05;;
61200;SDS011;47065;52.898;6.992;2023-03-20T08:42:24;13.60;;;6.82;;
61200;SDS011;47065;52.898;6.992;2023-03-20T08:44:50;14.60;;;7.63;;
61200;SDS011;47065;52.898;6.992;2023-03-20T08:47:16;14.88;;;7.60;;
61200;SDS011;47065;52.898;6.992;2023-03-20T08:49:42;13.15;;;6.68;;
61200;SDS011;47065;52.898;6.992;2023-03-20T08:52:08;12.80;;;6.30;;
61200;SDS011;47065;52.898;6.992;2023-03-20T08:54:34;13.02;;;7.45;;
61200;SDS011;47065;52.898;6.992;2023-03-20T08:57:00;16.02;;;8.32;;
61200;SDS011;47065;52.898;6.992;2023-03-20T08:59:25;18.75;;;7.63;;
61200;SDS011;47065;52.898;6.992;2023-03-20T09:01:51;15.15;;;8.30;;
61200;SDS011;47065;52.898;6.992;2023-03-20T09:04:17;16.83;;;7.78;;
61200;SDS011;47065;52.898;6.992;2023-03-20T09:06:45;17.17;;;8.18;;
61200;SDS011;47065;52.898;6.992;2023-03-20T09:09:11;12.10;;;7.15;;
61200;SDS011;47065;52.898;6.992;2023-03-20T09:11:39;10.93;;;7.07;;
61200;SDS011;47065;52.898;6.992;2023-03-20T09:14:05;13.07;;;7.78;;
61200;SDS011;47065;52.898;6.992;2023-03-20T09:16:31;15.23;;;8.82;;
61200;SDS011;47065;52.898;6.992;2023-03-20T09:18:57;16.45;;;9.10;;
61200;SDS011;47065;52.898;6.992;2023-03-20T09:21:23;15.00;;;8.27;;
61200;SDS011;47065;52.898;6.992;2023-03-20T09:23:49;17.63;;;8.73;;
61200;SDS011;47065;52.898;6.992;2023-03-20T09:26:14;15.20;;;7.68;;
61200;SDS011;47065;52.898;6.992;2023-03-20T09:28:40;18.92;;;7.82;;
61200;SDS011;47065;52.898;6.992;2023-03-20T09:31:06;14.45;;;7.03;;
61200;SDS011;47065;52.898;6.992;2023-03-20T09:33:32;14.52;;;8.05;;
61200;SDS011;47065;52.898;6.992;2023-03-20T09:35:57;13.38;;;6.72;;
61200;SDS011;47065;52.898;6.992;2023-03-20T09:38:23;14.23;;;7.75;;
61200;SDS011;47065;52.898;6.992;2023-03-20T09:40:53;15.85;;;7.43;;
61200;SDS011;47065;52.898;6.992;2023-03-20T09:49:12;13.15;;;7.40;;
61200;SDS011;47065;52.898;6.992;2023-03-20T09:56:49;13.45;;;6.55;;
61200;SDS011;47065;52.898;6.992;2023-03-20T09:59:16;12.30;;;7.13;;
61200;SDS011;47065;52.898;6.992;2023-03-20T10:01:49;10.93;;;6.95;;
61200;SDS011;47065;52.898;6.992;2023-03-20T10:04:17;14.65;;;7.45;;
61200;SDS011;47065;52.898;6.992;2023-03-20T10:06:43;14.25;;;7.38;;
61200;SDS011;47065;52.898;6.992;2023-03-20T10:09:20;16.83;;;7.57;;
61200;SDS011;47065;52.898;6.992;2023-03-20T10:25:31;15.27;;;7.20;;
61200;SDS011;47065;52.898;6.992;2023-03-20T10:28:09;13.38;;;5.97;;
61200;SDS011;47065;52.898;6.992;2023-03-20T10:31:09;13.05;;;7.57;;
61200;SDS011;47065;52.898;6.992;2023-03-20T10:41:37;9.70;;;6.47;;
61200;SDS011;47065;52.898;6.992;2023-03-20T10:44:08;10.95;;;6.43;;
61200;SDS011;47065;52.898;6.992;2023-03-20T10:46:41;12.23;;;6.20;;
61200;SDS011;47065;52.898;6.992;2023-03-20T10:49:16;13.85;;;7.00;;
61200;SDS011;47065;52.898;6.992;2023-03-20T10:54:29;12.98;;;6.07;;
61200;SDS011;47065;52.898;6.992;2023-03-20T11:02:11;13.85;;;6.85;;
61200;SDS011;47065;52.898;6.992;2023-03-20T11:04:38;10.02;;;6.97;;
61200;SDS011;47065;52.898;6.992;2023-03-20T11:09:36;12.85;;;6.78;;
61200;SDS011;47065;52.898;6.992;2023-03-20T11:12:03;9.35;;;5.72;;
61200;SDS011;47065;52.898;6.992;2023-03-20T11:14:34;16.02;;;6.68;;
61200;SDS011;47065;52.898;6.992;2023-03-20T11:17:03;12.80;;;6.75;;
61200;SDS011;47065;52.898;6.992;2023-03-20T11:19:38;13.82;;;7.03;;
61200;SDS011;47065;52.898;6.992;2023-03-20T11:22:21;13.07;;;6.93;;
61200;SDS011;47065;52.898;6.992;2023-03-20T11:24:50;13.05;;;7.05;;
61200;SDS011;47065;52.898;6.992;2023-03-20T11:27:23;13.20;;;7.45;;
61200;SDS011;47065;52.898;6.992;2023-03-20T11:29:50;12.30;;;6.80;;
61200;SDS011;47065;52.898;6.992;2023-03-20T11:35:10;12.35;;;6.90;;
61200;SDS011;47065;52.898;6.992;2023-03-20T11:37:52;13.85;;;6.63;;
61200;SDS011;47065;52.898;6.992;2023-03-20T11:40:32;12.13;;;6.57;;
61200;SDS011;47065;52.898;6.992;2023-03-20T11:45:33;12.43;;;5.85;;
61200;SDS011;47065;52.898;6.992;2023-03-20T11:48:01;13.80;;;6.38;;
61200;SDS011;47065;52.898;6.992;2023-03-20T11:50:41;13.13;;;6.40;;
61200;SDS011;47065;52.898;6.992;2023-03-20T11:53:55;17.58;;;7.25;;
61200;SDS011;47065;52.898;6.992;2023-03-20T12:01:53;11.88;;;5.75;;
61200;SDS011;47065;52.898;6.992;2023-03-20T12:06:54;11.65;;;5.00;;
61200;SDS011;47065;52.898;6.992;2023-03-20T12:09:37;12.02;;;6.32;;
61200;SDS011;47065;52.898;6.992;2023-03-20T12:12:11;12.43;;;6.68;;
61200;SDS011;47065;52.898;6.992;2023-03-20T12:17:36;11.65;;;5.03;;
61200;SDS011;47065;52.898;6.992;2023-03-20T12:25:25;8.65;;;5.20;;
61200;SDS011;47065;52.898;6.992;2023-03-20T12:28:01;8.85;;;3.80;;
61200;SDS011;47065;52.898;6.992;2023-03-20T12:33:33;13.40;;;6.47;;
61200;SDS011;47065;52.898;6.992;2023-03-20T12:36:34;10.45;;;5.40;;
61200;SDS011;47065;52.898;6.992;2023-03-20T12:39:04;10.25;;;6.07;;
61200;SDS011;47065;52.898;6.992;2023-03-20T12:49:41;12.70;;;6.55;;
61200;SDS011;47065;52.898;6.992;2023-03-20T12:58:34;9.32;;;5.10;;
61200;SDS011;47065;52.898;6.992;2023-03-20T13:00:50;11.10;;;5.22;;
61200;SDS011;47065;52.898;6.992;2023-03-20T13:03:44;11.77;;;5.30;;
61200;SDS011;47065;52.898;6.992;2023-03-20T13:31:08;6.85;;;3.25;;
61200;SDS011;47065;52.898;6.992;2023-03-20T13:36:59;8.18;;;3.85;;
61200;SDS011;47065;52.898;6.992;2023-03-20T13:42:22;11.25;;;4.28;;
61200;SDS011;47065;52.898;6.992;2023-03-20T13:44:54;15.93;;;3.85;;
61200;SDS011;47065;52.898;6.992;2023-03-20T13:47:25;5.28;;;2.88;;
61200;SDS011;47065;52.898;6.992;2023-03-20T13:50:22;8.18;;;3.85;;
61200;SDS011;47065;52.898;6.992;2023-03-20T13:53:24;7.47;;;3.22;;
61200;SDS011;47065;52.898;6.992;2023-03-20T13:58:50;6.70;;;2.65;;
61200;SDS011;47065;52.898;6.992;2023-03-20T14:01:44;8.48;;;3.50;;
61200;SDS011;47065;52.898;6.992;2023-03-20T14:04:23;6.03;;;3.35;;
61200;SDS011;47065;52.898;6.992;2023-03-20T14:06:52;10.45;;;4.50;;
61200;SDS011;47065;52.898;6.992;2023-03-20T14:09:25;7.18;;;3.70;;
61200;SDS011;47065;52.898;6.992;2023-03-20T14:11:57;10.00;;;3.90;;
61200;SDS011;47065;52.898;6.992;2023-03-20T14:14:30;5.85;;;3.33;;
61200;SDS011;47065;52.898;6.992;2023-03-20T14:17:14;6.53;;;3.42;;
61200;SDS011;47065;52.898;6.992;2023-03-20T14:19:40;7.07;;;3.40;;
61200;SDS011;47065;52.898;6.992;2023-03-20T14:22:07;6.78;;;3.45;;
61200;SDS011;47065;52.898;6.992;2023-03-20T14:24:40;9.63;;;3.17;;
61200;SDS011;47065;52.898;6.992;2023-03-20T14:27:17;8.40;;;3.40;;
61200;SDS011;47065;52.898;6.992;2023-03-20T14:29:45;6.85;;;4.07;;
61200;SDS011;47065;52.898;6.992;2023-03-20T14:34:45;7.97;;;4.15;;
61200;SDS011;47065;52.898;6.992;2023-03-20T14:37:29;12.48;;;4.20;;
61200;SDS011;47065;52.898;6.992;2023-03-20T14:40:00;13.63;;;4.72;;
61200;SDS011;47065;52.898;6.992;2023-03-20T14:42:52;10.40;;;3.30;;
61200;SDS011;47065;52.898;6.992;2023-03-20T14:45:30;9.13;;;3.45;;
61200;SDS011;47065;52.898;6.992;2023-03-20T14:50:39;10.18;;;4.75;;
61200;SDS011;47065;52.898;6.992;2023-03-20T14:53:13;5.43;;;3.47;;
61200;SDS011;47065;52.898;6.992;2023-03-20T15:01:03;9.50;;;4.05;;
61200;SDS011;47065;52.898;6.992;2023-03-20T15:03:34;14.43;;;4.93;;
61200;SDS011;47065;52.898;6.992;2023-03-20T15:06:05;8.43;;;5.07;;
61200;SDS011;47065;52.898;6.992;2023-03-20T15:08:42;6.80;;;4.22;;
61200;SDS011;47065;52.898;6.992;2023-03-20T15:11:17;9.70;;;4.97;;
61200;SDS011;47065;52.898;6.992;2023-03-20T15:13:44;11.10;;;5.32;;
61200;SDS011;47065;52.898;6.992;2023-03-20T15:16:13;8.05;;;5.07;;
61200;SDS011;47065;52.898;6.992;2023-03-20T15:18:48;11.90;;;5.65;;
61200;SDS011;47065;52.898;6.992;2023-03-20T15:21:17;12.10;;;6.00;;
61200;SDS011;47065;52.898;6.992;2023-03-20T15:23:52;12.88;;;5.80;;
61200;SDS011;47065;52.898;6.992;2023-03-20T15:26:18;10.27;;;6.45;;
61200;SDS011;47065;52.898;6.992;2023-03-20T15:28:46;9.43;;;6.55;;
61200;SDS011;47065;52.898;6.992;2023-03-20T15:31:45;13.27;;;6.60;;
61200;SDS011;47065;52.898;6.992;2023-03-20T15:34:08;13.95;;;6.63;;
61200;SDS011;47065;52.898;6.992;2023-03-20T15:36:43;13.25;;;7.75;;
61200;SDS011;47065;52.898;6.992;2023-03-20T15:39:14;9.80;;;6.68;;
61200;SDS011;47065;52.898;6.992;2023-03-20T15:41:49;13.52;;;7.47;;
61200;SDS011;47065;52.898;6.992;2023-03-20T15:49:51;15.55;;;7.82;;
61200;SDS011;47065;52.898;6.992;2023-03-20T15:57:43;16.45;;;8.05;;
61200;SDS011;47065;52.898;6.992;2023-03-20T16:00:45;17.52;;;8.23;;
61200;SDS011;47065;52.898;6.992;2023-03-20T16:03:07;19.75;;;9.82;;
61200;SDS011;47065;52.898;6.992;2023-03-20T16:05:35;17.17;;;8.90;;
61200;SDS011;47065;52.898;6.992;2023-03-20T16:08:10;16.38;;;9.90;;
61200;SDS011;47065;52.898;6.992;2023-03-20T16:10:40;16.63;;;9.13;;
61200;SDS011;47065;52.898;6.992;2023-03-20T16:13:09;19.20;;;9.85;;
61200;SDS011;47065;52.898;6.992;2023-03-20T16:15:42;19.35;;;9.60;;
61200;SDS011;47065;52.898;6.992;2023-03-20T16:18:09;13.55;;;9.55;;
61200;SDS011;47065;52.898;6.992;2023-03-20T16:20:39;18.42;;;10.20;;
61200;SDS011;47065;52.898;6.992;2023-03-20T16:23:27;19.77;;;10.20;;
61200;SDS011;47065;52.898;6.992;2023-03-20T16:25:57;13.05;;;10.32;;
61200;SDS011;47065;52.898;6.992;2023-03-20T16:28:25;22.63;;;9.90;;
61200;SDS011;47065;52.898;6.992;2023-03-20T16:30:51;15.82;;;10.35;;
61200;SDS011;47065;52.898;6.992;2023-03-20T16:33:19;17.45;;;10.25;;
61200;SDS011;47065;52.898;6.992;2023-03-20T16:35:48;19.70;;;11.20;;
61200;SDS011;47065;52.898;6.992;2023-03-20T16:40:43;18.27;;;11.13;;
61200;SDS011;47065;52.898;6.992;2023-03-20T16:43:16;20.02;;;12.10;;
61200;SDS011;47065;52.898;6.992;2023-03-20T16:45:45;21.42;;;13.75;;
61200;SDS011;47065;52.898;6.992;2023-03-20T16:48:20;24.52;;;13.25;;
61200;SDS011;47065;52.898;6.992;2023-03-20T16:51:00;23.13;;;14.73;;
61200;SDS011;47065;52.898;6.992;2023-03-20T16:53:44;20.77;;;13.82;;
61200;SDS011;47065;52.898;6.992;2023-03-20T16:56:16;24.92;;;14.70;;
61200;SDS011;47065;52.898;6.992;2023-03-20T16:58:46;22.52;;;15.02;;
61200;SDS011;47065;52.898;6.992;2023-03-20T17:01:20;22.55;;;15.35;;
61200;SDS011;47065;52.898;6.992;2023-03-20T17:08:50;26.20;;;16.17;;
61200;SDS011;47065;52.898;6.992;2023-03-20T17:11:28;26.98;;;17.73;;
61200;SDS011;47065;52.898;6.992;2023-03-20T17:13:59;26.15;;;15.57;;
61200;SDS011;47065;52.898;6.992;2023-03-20T17:16:25;28.13;;;18.73;;
61200;SDS011;47065;52.898;6.992;2023-03-20T17:18:58;30.45;;;17.52;;
61200;SDS011;47065;52.898;6.992;2023-03-20T17:21:25;31.15;;;19.15;;
61200;SDS011;47065;52.898;6.992;2023-03-20T17:23:51;33.60;;;18.30;;
61200;SDS011;47065;52.898;6.992;2023-03-20T17:26:17;29.15;;;18.65;;
61200;SDS011;47065;52.898;6.992;2023-03-20T17:28:42;32.85;;;18.55;;
61200;SDS011;47065;52.898;6.992;2023-03-20T17:31:10;34.15;;;19.90;;
61200;SDS011;47065;52.898;6.992;2023-03-20T17:33:38;35.33;;;20.70;;
61200;SDS011;47065;52.898;6.992;2023-03-20T17:36:08;32.42;;;20.55;;
61200;SDS011;47065;52.898;6.992;2023-03-20T17:38:40;35.95;;;21.58;;
61200;SDS011;47065;52.898;6.992;2023-03-20T17:41:08;37.00;;;21.42;;
61200;SDS011;47065;52.898;6.992;2023-03-20T17:43:38;41.30;;;21.48;;
61200;SDS011;47065;52.898;6.992;2023-03-20T17:46:04;33.13;;;21.33;;
61200;SDS011;47065;52.898;6.992;2023-03-20T17:48:30;37.75;;;21.70;;
61200;SDS011;47065;52.898;6.992;2023-03-20T17:50:56;41.55;;;21.80;;
61200;SDS011;47065;52.898;6.992;2023-03-20T17:53:23;38.70;;;22.08;;
61200;SDS011;47065;52.898;6.992;2023-03-20T17:55:52;34.88;;;22.30;;
61200;SDS011;47065;52.898;6.992;2023-03-20T17:58:19;35.83;;;22.67;;